sensor_id;sensor_type;location;lat;lon;timestamp;P1;durP1;ratioP1;P2;durP2;ratioP2
9254;SDS011;4663;49.120;9.730;2022-10-01T00:01:03;42.30;;;40.00;;
9254;SDS011;4663;49.120;9.730;2022-10-01T00:03:30;40.83;;;38.43;;
9254;SDS011;4663;49.120;9.730;2022-10-01T00:06:02;41.07;;;38.70;;
9254;SDS011;4663;49.120;9.730;2022-10-01T00:08:30;39.97;;;37.70;;
9254;SDS011;4663;49.120;9.730;2022-10-01T00:10:56;41.97;;;39.57;;
9254;SDS011;4663;49.120;9.730;2022-10-01T00:13:24;41.97;;;39.60;;
9254;SDS011;4663;49.120;9.730;2022-10-01T00:15:50;40.70;;;38.33;;
9254;SDS011;4663;49.120;9.730;2022-10-01T00:18:15;38.40;;;36.13;;
9254;SDS011;4663;49.120;9.730;2022-10-01T00:20:41;38.20;;;36.03;;
9254;SDS011;4663;49.120;9.730;2022-10-01T00:23:10;37.60;;;35.40;;
9254;SDS011;4663;49.120;9.730;2022-10-01T00:25:37;38.00;;;35.70;;
9254;SDS011;4663;49.120;9.730;2022-10-01T00:28:03;38.67;;;36.17;;
9254;SDS011;4663;49.120;9.730;2022-10-01T00:30:28;36.37;;;34.23;;
9254;SDS011;4663;49.120;9.730;2022-10-01T00:32:54;37.03;;;34.87;;
9254;SDS011;4663;49.120;9.730;2022-10-01T00:35:20;35.97;;;33.87;;
9254;SDS011;4663;49.120;9.730;2022-10-01T00:37:49;35.30;;;33.10;;
9254;SDS011;4663;49.120;9.730;2022-10-01T00:40:16;35.70;;;33.50;;
9254;SDS011;4663;49.120;9.730;2022-10-01T00:42:43;35.60;;;33.50;;
9254;SDS011;4663;49.120;9.730;2022-10-01T00:45:10;35.73;;;33.60;;
9254;SDS011;4663;49.120;9.730;2022-10-01T00:47:37;36.67;;;34.50;;
9254;SDS011;4663;49.120;9.730;2022-10-01T00:50:07;36.83;;;34.70;;
9254;SDS011;4663;49.120;9.730;2022-10-01T00:52:40;35.57;;;33.47;;
9254;SDS011;4663;49.120;9.730;2022-10-01T00:55:10;34.80;;;32.83;;
9254;SDS011;4663;49.120;9.730;2022-10-01T00:57:42;35.10;;;32.87;;
9254;SDS011;4663;49.120;9.730;2022-10-01T01:00:09;35.97;;;33.70;;
9254;SDS011;4663;49.120;9.730;2022-10-01T01:02:36;34.10;;;32.07;;
9254;SDS011;4663;49.120;9.730;2022-10-01T01:05:01;35.37;;;33.30;;
9254;SDS011;4663;49.120;9.730;2022-10-01T01:07:28;35.67;;;33.60;;
9254;SDS011;4663;49.120;9.730;2022-10-01T01:09:55;37.23;;;34.97;;
9254;SDS011;4663;49.120;9.730;2022-10-01T01:17:54;34.73;;;32.60;;
9254;SDS011;4663;49.120;9.730;2022-10-01T01:28:56;33.80;;;31.87;;
9254;SDS011;4663;49.120;9.730;2022-10-01T01:31:36;33.47;;;31.60;;
9254;SDS011;4663;49.120;9.730;2022-10-01T01:34:06;35.73;;;33.70;;
9254;SDS011;4663;49.120;9.730;2022-10-01T01:36:38;33.80;;;31.80;;
9254;SDS011;4663;49.120;9.730;2022-10-01T01:39:07;34.67;;;32.47;;
9254;SDS011;4663;49.120;9.730;2022-10-01T01:41:36;35.60;;;33.37;;
9254;SDS011;4663;49.120;9.730;2022-10-01T01:44:05;36.47;;;34.43;;
9254;SDS011;4663;49.120;9.730;2022-10-01T01:46:35;35.27;;;33.17;;
9254;SDS011;4663;49.120;9.730;2022-10-01T01:49:04;35.57;;;33.50;;
9254;SDS011;4663;49.120;9.730;2022-10-01T01:51:51;33.93;;;31.93;;
9254;SDS011;4663;49.120;9.730;2022-10-01T01:54:22;32.97;;;31.07;;
9254;SDS011;4663;49.120;9.730;2022-10-01T01:56:48;33.43;;;31.47;;
9254;SDS011;4663;49.120;9.730;2022-10-01T01:59:14;33.67;;;31.67;;
9254;SDS011;4663;49.120;9.730;2022-10-01T02:01:42;34.13;;;32.27;;
9254;SDS011;4663;49.120;9.730;2022-10-01T02:09:56;35.53;;;33.33;;
9254;SDS011;4663;49.120;9.730;2022-10-01T02:20:06;38.90;;;36.77;;
9254;SDS011;4663;49.120;9.730;2022-10-01T02:22:47;40.20;;;37.93;;
9254;SDS011;4663;49.120;9.730;2022-10-01T02:25:26;38.53;;;36.30;;
9254;SDS011;4663;49.120;9.730;2022-10-01T02:28:00;41.03;;;38.80;;
9254;SDS011;4663;49.120;9.730;2022-10-01T02:30:31;42.57;;;40.27;;
9254;SDS011;4663;49.120;9.730;2022-10-01T02:32:59;43.43;;;40.83;;
9254;SDS011;4663;49.120;9.730;2022-10-01T02:35:26;43.47;;;40.87;;
9254;SDS011;4663;49.120;9.730;2022-10-01T02:37:55;44.40;;;41.97;;
9254;SDS011;4663;49.120;9.730;2022-10-01T02:40:24;44.43;;;42.07;;
9254;SDS011;4663;49.120;9.730;2022-10-01T02:42:53;45.90;;;43.43;;
9254;SDS011;4663;49.120;9.730;2022-10-01T02:45:23;45.60;;;42.93;;
9254;SDS011;4663;49.120;9.730;2022-10-01T02:47:54;45.30;;;42.80;;
9254;SDS011;4663;49.120;9.730;2022-10-01T02:50:26;43.77;;;41.20;;
9254;SDS011;4663;49.120;9.730;2022-10-01T02:53:06;47.97;;;45.30;;
9254;SDS011;4663;49.120;9.730;2022-10-01T02:55:35;46.30;;;43.63;;
9254;SDS011;4663;49.120;9.730;2022-10-01T02:58:03;45.50;;;42.90;;
9254;SDS011;4663;49.120;9.730;2022-10-01T03:00:28;49.33;;;46.63;;
9254;SDS011;4663;49.120;9.730;2022-10-01T03:02:54;49.87;;;47.13;;
9254;SDS011;4663;49.120;9.730;2022-10-01T03:05:20;48.37;;;45.77;;
9254;SDS011;4663;49.120;9.730;2022-10-01T03:07:45;49.30;;;46.57;;
9254;SDS011;4663;49.120;9.730;2022-10-01T03:10:11;49.20;;;46.30;;
9254;SDS011;4663;49.120;9.730;2022-10-01T03:12:39;51.30;;;48.53;;
9254;SDS011;4663;49.120;9.730;2022-10-01T03:15:14;49.47;;;46.83;;
9254;SDS011;4663;49.120;9.730;2022-10-01T03:17:41;49.67;;;46.83;;
9254;SDS011;4663;49.120;9.730;2022-10-01T03:20:07;48.60;;;46.00;;
9254;SDS011;4663;49.120;9.730;2022-10-01T03:22:33;46.53;;;43.97;;
9254;SDS011;4663;49.120;9.730;2022-10-01T03:24:58;45.83;;;43.37;;
9254;SDS011;4663;49.120;9.730;2022-10-01T03:27:24;44.07;;;41.63;;
9254;SDS011;4663;49.120;9.730;2022-10-01T03:29:49;44.97;;;42.57;;
9254;SDS011;4663;49.120;9.730;2022-10-01T03:32:15;46.73;;;44.03;;
9254;SDS011;4663;49.120;9.730;2022-10-01T03:34:41;45.83;;;43.23;;
9254;SDS011;4663;49.120;9.730;2022-10-01T03:37:06;46.70;;;44.27;;
9254;SDS011;4663;49.120;9.730;2022-10-01T03:39:32;46.60;;;44.10;;
9254;SDS011;4663;49.120;9.730;2022-10-01T03:41:58;47.83;;;45.40;;
9254;SDS011;4663;49.120;9.730;2022-10-01T03:44:23;47.37;;;44.67;;
9254;SDS011;4663;49.120;9.730;2022-10-01T03:46:49;47.50;;;45.10;;
9254;SDS011;4663;49.120;9.730;2022-10-01T03:49:14;45.13;;;42.77;;
9254;SDS011;4663;49.120;9.730;2022-10-01T03:51:40;45.27;;;42.90;;
9254;SDS011;4663;49.120;9.730;2022-10-01T03:54:06;43.00;;;40.77;;
9254;SDS011;4663;49.120;9.730;2022-10-01T03:56:32;41.90;;;39.67;;
9254;SDS011;4663;49.120;9.730;2022-10-01T03:58:59;42.50;;;40.27;;
9254;SDS011;4663;49.120;9.730;2022-10-01T04:01:24;41.00;;;38.77;;
9254;SDS011;4663;49.120;9.730;2022-10-01T04:03:50;39.80;;;37.67;;
9254;SDS011;4663;49.120;9.730;2022-10-01T04:06:16;38.13;;;36.13;;
9254;SDS011;4663;49.120;9.730;2022-10-01T04:08:41;37.73;;;35.70;;
9254;SDS011;4663;49.120;9.730;2022-10-01T04:11:07;34.47;;;32.70;;
9254;SDS011;4663;49.120;9.730;2022-10-01T04:13:33;35.57;;;33.77;;
9254;SDS011;4663;49.120;9.730;2022-10-01T04:15:59;35.83;;;33.93;;
9254;SDS011;4663;49.120;9.730;2022-10-01T04:18:28;34.00;;;31.97;;
9254;SDS011;4663;49.120;9.730;2022-10-01T04:20:54;32.67;;;30.83;;
9254;SDS011;4663;49.120;9.730;2022-10-01T04:23:19;30.93;;;29.20;;
9254;SDS011;4663;49.120;9.730;2022-10-01T04:25:46;31.60;;;29.93;;
9254;SDS011;4663;49.120;9.730;2022-10-01T04:28:12;31.90;;;30.17;;
9254;SDS011;4663;49.120;9.730;2022-10-01T04:30:39;29.57;;;28.00;;
9254;SDS011;4663;49.120;9.730;2022-10-01T04:33:08;30.73;;;29.13;;
9254;SDS011;4663;49.120;9.730;2022-10-01T04:35:36;28.87;;;27.30;;
9254;SDS011;4663;49.120;9.730;2022-10-01T04:38:05;29.57;;;28.03;;
9254;SDS011;4663;49.120;9.730;2022-10-01T04:40:33;29.80;;;28.10;;
9254;SDS011;4663;49.120;9.730;2022-10-01T04:43:00;31.30;;;29.27;;
9254;SDS011;4663;49.120;9.730;2022-10-01T04:45:26;31.37;;;29.53;;
9254;SDS011;4663;49.120;9.730;2022-10-01T04:47:52;30.87;;;28.80;;
9254;SDS011;4663;49.120;9.730;2022-10-01T04:50:19;29.80;;;28.13;;
9254;SDS011;4663;49.120;9.730;2022-10-01T04:52:46;29.60;;;28.00;;
9254;SDS011;4663;49.120;9.730;2022-10-01T04:55:11;28.50;;;27.03;;
9254;SDS011;4663;49.120;9.730;2022-10-01T04:57:38;29.43;;;27.93;;
9254;SDS011;4663;49.120;9.730;2022-10-01T05:00:04;28.93;;;26.80;;
9254;SDS011;4663;49.120;9.730;2022-10-01T05:02:31;29.87;;;28.33;;
9254;SDS011;4663;49.120;9.730;2022-10-01T05:04:58;26.97;;;25.43;;
9254;SDS011;4663;49.120;9.730;2022-10-01T05:07:32;26.60;;;25.30;;
9254;SDS011;4663;49.120;9.730;2022-10-01T05:09:59;26.37;;;25.03;;
9254;SDS011;4663;49.120;9.730;2022-10-01T05:12:25;25.83;;;24.53;;
9254;SDS011;4663;49.120;9.730;2022-10-01T05:14:52;25.87;;;24.50;;
9254;SDS011;4663;49.120;9.730;2022-10-01T05:17:18;26.23;;;24.77;;
9254;SDS011;4663;49.120;9.730;2022-10-01T05:19:44;24.67;;;23.13;;
9254;SDS011;4663;49.120;9.730;2022-10-01T05:22:10;23.40;;;22.17;;
9254;SDS011;4663;49.120;9.730;2022-10-01T05:24:36;22.33;;;21.17;;
9254;SDS011;4663;49.120;9.730;2022-10-01T05:27:01;22.43;;;21.17;;
9254;SDS011;4663;49.120;9.730;2022-10-01T05:29:27;23.00;;;21.90;;
9254;SDS011;4663;49.120;9.730;2022-10-01T05:31:52;21.53;;;20.17;;
9254;SDS011;4663;49.120;9.730;2022-10-01T05:34:21;20.93;;;19.63;;
9254;SDS011;4663;49.120;9.730;2022-10-01T05:36:46;18.97;;;18.03;;
9254;SDS011;4663;49.120;9.730;2022-10-01T05:39:11;18.90;;;17.90;;
9254;SDS011;4663;49.120;9.730;2022-10-01T05:41:37;18.93;;;17.57;;
9254;SDS011;4663;49.120;9.730;2022-10-01T05:44:05;17.20;;;16.30;;
9254;SDS011;4663;49.120;9.730;2022-10-01T05:46:31;17.67;;;16.77;;
9254;SDS011;4663;49.120;9.730;2022-10-01T05:48:56;17.80;;;16.80;;
9254;SDS011;4663;49.120;9.730;2022-10-01T05:51:22;15.47;;;14.73;;
9254;SDS011;4663;49.120;9.730;2022-10-01T05:53:48;16.30;;;15.40;;
9254;SDS011;4663;49.120;9.730;2022-10-01T05:56:13;16.97;;;16.07;;
9254;SDS011;4663;49.120;9.730;2022-10-01T05:58:39;14.80;;;14.10;;
9254;SDS011;4663;49.120;9.730;2022-10-01T06:01:04;15.07;;;14.17;;
9254;SDS011;4663;49.120;9.730;2022-10-01T06:03:30;15.43;;;14.60;;
9254;SDS011;4663;49.120;9.730;2022-10-01T06:05:55;15.20;;;14.40;;
9254;SDS011;4663;49.120;9.730;2022-10-01T06:08:21;15.43;;;14.27;;
9254;SDS011;4663;49.120;9.730;2022-10-01T06:10:47;14.33;;;13.63;;
9254;SDS011;4663;49.120;9.730;2022-10-01T06:13:13;14.10;;;13.33;;
9254;SDS011;4663;49.120;9.730;2022-10-01T06:15:41;14.90;;;14.20;;
9254;SDS011;4663;49.120;9.730;2022-10-01T06:18:08;15.60;;;14.70;;
9254;SDS011;4663;49.120;9.730;2022-10-01T06:20:36;15.03;;;14.23;;
9254;SDS011;4663;49.120;9.730;2022-10-01T06:23:02;14.50;;;13.70;;
9254;SDS011;4663;49.120;9.730;2022-10-01T06:25:34;15.73;;;14.93;;
9254;SDS011;4663;49.120;9.730;2022-10-01T06:28:01;14.20;;;13.50;;
9254;SDS011;4663;49.120;9.730;2022-10-01T06:30:28;14.90;;;13.97;;
9254;SDS011;4663;49.120;9.730;2022-10-01T06:33:02;14.87;;;14.03;;
9254;SDS011;4663;49.120;9.730;2022-10-01T06:35:30;15.37;;;14.57;;
9254;SDS011;4663;49.120;9.730;2022-10-01T06:37:56;15.40;;;14.50;;
9254;SDS011;4663;49.120;9.730;2022-10-01T06:40:22;14.93;;;14.20;;
9254;SDS011;4663;49.120;9.730;2022-10-01T06:42:48;15.83;;;15.07;;
9254;SDS011;4663;49.120;9.730;2022-10-01T06:45:14;16.80;;;15.93;;
9254;SDS011;4663;49.120;9.730;2022-10-01T06:47:43;18.47;;;17.33;;
9254;SDS011;4663;49.120;9.730;2022-10-01T06:50:09;18.63;;;17.77;;
9254;SDS011;4663;49.120;9.730;2022-10-01T06:52:35;19.77;;;18.60;;
9254;SDS011;4663;49.120;9.730;2022-10-01T06:55:13;19.10;;;18.17;;
9254;SDS011;4663;49.120;9.730;2022-10-01T06:57:43;20.83;;;19.17;;
9254;SDS011;4663;49.120;9.730;2022-10-01T07:00:09;22.47;;;21.10;;
9254;SDS011;4663;49.120;9.730;2022-10-01T07:02:35;24.60;;;23.23;;
9254;SDS011;4663;49.120;9.730;2022-10-01T07:05:00;24.97;;;23.43;;
9254;SDS011;4663;49.120;9.730;2022-10-01T07:07:29;26.43;;;25.10;;
9254;SDS011;4663;49.120;9.730;2022-10-01T07:09:59;52.93;;;50.27;;
9254;SDS011;4663;49.120;9.730;2022-10-01T07:12:25;26.37;;;24.97;;
9254;SDS011;4663;49.120;9.730;2022-10-01T07:14:51;25.73;;;24.43;;
9254;SDS011;4663;49.120;9.730;2022-10-01T07:17:16;27.77;;;26.33;;
9254;SDS011;4663;49.120;9.730;2022-10-01T07:19:42;26.00;;;24.53;;
9254;SDS011;4663;49.120;9.730;2022-10-01T07:22:07;26.57;;;25.30;;
9254;SDS011;4663;49.120;9.730;2022-10-01T07:24:33;26.90;;;25.43;;
9254;SDS011;4663;49.120;9.730;2022-10-01T07:26:58;26.93;;;25.50;;
9254;SDS011;4663;49.120;9.730;2022-10-01T07:29:24;29.13;;;27.70;;
9254;SDS011;4663;49.120;9.730;2022-10-01T07:31:50;28.97;;;27.60;;
9254;SDS011;4663;49.120;9.730;2022-10-01T07:34:21;28.47;;;27.10;;
9254;SDS011;4663;49.120;9.730;2022-10-01T07:36:48;32.63;;;31.00;;
9254;SDS011;4663;49.120;9.730;2022-10-01T07:39:14;32.80;;;31.20;;
9254;SDS011;4663;49.120;9.730;2022-10-01T07:41:40;34.03;;;32.27;;
9254;SDS011;4663;49.120;9.730;2022-10-01T07:44:06;33.80;;;31.95;;
9254;SDS011;4663;49.120;9.730;2022-10-01T07:46:31;35.10;;;33.40;;
9254;SDS011;4663;49.120;9.730;2022-10-01T07:48:57;34.87;;;33.07;;
9254;SDS011;4663;49.120;9.730;2022-10-01T07:51:22;37.53;;;35.70;;
9254;SDS011;4663;49.120;9.730;2022-10-01T07:53:48;36.23;;;34.20;;
9254;SDS011;4663;49.120;9.730;2022-10-01T07:56:15;36.77;;;34.77;;
9254;SDS011;4663;49.120;9.730;2022-10-01T07:58:40;37.37;;;35.53;;
9254;SDS011;4663;49.120;9.730;2022-10-01T08:01:06;38.07;;;36.07;;
9254;SDS011;4663;49.120;9.730;2022-10-01T08:03:33;37.73;;;35.83;;
9254;SDS011;4663;49.120;9.730;2022-10-01T08:05:59;38.97;;;37.07;;
9254;SDS011;4663;49.120;9.730;2022-10-01T08:08:27;38.37;;;35.83;;
9254;SDS011;4663;49.120;9.730;2022-10-01T08:10:54;38.00;;;36.00;;
9254;SDS011;4663;49.120;9.730;2022-10-01T08:13:19;38.47;;;36.58;;
9254;SDS011;4663;49.120;9.730;2022-10-01T08:15:48;37.30;;;35.30;;
9254;SDS011;4663;49.120;9.730;2022-10-01T08:18:17;38.00;;;36.20;;
9254;SDS011;4663;49.120;9.730;2022-10-01T08:20:44;37.42;;;35.63;;
9254;SDS011;4663;49.120;9.730;2022-10-01T08:23:11;39.40;;;37.43;;
9254;SDS011;4663;49.120;9.730;2022-10-01T08:25:38;38.37;;;36.47;;
9254;SDS011;4663;49.120;9.730;2022-10-01T08:28:05;38.60;;;36.57;;
9254;SDS011;4663;49.120;9.730;2022-10-01T08:30:31;38.37;;;36.37;;
9254;SDS011;4663;49.120;9.730;2022-10-01T08:32:57;39.47;;;37.47;;
9254;SDS011;4663;49.120;9.730;2022-10-01T08:35:24;38.80;;;36.87;;
9254;SDS011;4663;49.120;9.730;2022-10-01T08:37:50;38.97;;;36.93;;
9254;SDS011;4663;49.120;9.730;2022-10-01T08:40:16;38.70;;;36.83;;
9254;SDS011;4663;49.120;9.730;2022-10-01T08:45:49;36.03;;;34.33;;
9254;SDS011;4663;49.120;9.730;2022-10-01T08:51:04;34.53;;;32.80;;
9254;SDS011;4663;49.120;9.730;2022-10-01T08:53:38;36.67;;;34.80;;
9254;SDS011;4663;49.120;9.730;2022-10-01T08:56:52;36.20;;;34.38;;
9254;SDS011;4663;49.120;9.730;2022-10-01T08:59:08;34.43;;;32.63;;
9254;SDS011;4663;49.120;9.730;2022-10-01T09:01:43;34.60;;;32.80;;
9254;SDS011;4663;49.120;9.730;2022-10-01T09:04:08;35.17;;;33.40;;
9254;SDS011;4663;49.120;9.730;2022-10-01T09:06:34;33.43;;;31.77;;
9254;SDS011;4663;49.120;9.730;2022-10-01T09:12:02;33.63;;;31.97;;
9254;SDS011;4663;49.120;9.730;2022-10-01T09:20:56;34.03;;;31.97;;
9254;SDS011;4663;49.120;9.730;2022-10-01T09:23:26;31.93;;;30.17;;
9254;SDS011;4663;49.120;9.730;2022-10-01T09:25:54;32.97;;;31.33;;
9254;SDS011;4663;49.120;9.730;2022-10-01T09:28:23;29.80;;;28.37;;
9254;SDS011;4663;49.120;9.730;2022-10-01T09:33:39;30.48;;;28.95;;
9254;SDS011;4663;49.120;9.730;2022-10-01T09:36:28;28.77;;;27.30;;
9254;SDS011;4663;49.120;9.730;2022-10-01T09:41:56;28.00;;;26.63;;
9254;SDS011;4663;49.120;9.730;2022-10-01T09:44:24;26.00;;;24.70;;
9254;SDS011;4663;49.120;9.730;2022-10-01T09:46:51;25.23;;;23.93;;
9254;SDS011;4663;49.120;9.730;2022-10-01T09:49:37;26.03;;;24.73;;
9254;SDS011;4663;49.120;9.730;2022-10-01T09:52:14;23.20;;;21.97;;
9254;SDS011;4663;49.120;9.730;2022-10-01T09:57:36;22.83;;;21.63;;
9254;SDS011;4663;49.120;9.730;2022-10-01T10:00:17;20.77;;;19.58;;
9254;SDS011;4663;49.120;9.730;2022-10-01T10:02:45;19.48;;;18.38;;
9254;SDS011;4663;49.120;9.730;2022-10-01T10:05:13;18.05;;;17.15;;
9254;SDS011;4663;49.120;9.730;2022-10-01T10:07:43;17.08;;;16.17;;
9254;SDS011;4663;49.120;9.730;2022-10-01T10:13:03;17.98;;;17.08;;
9254;SDS011;4663;49.120;9.730;2022-10-01T10:15:51;19.02;;;18.02;;
9254;SDS011;4663;49.120;9.730;2022-10-01T10:18:30;19.50;;;18.50;;
9254;SDS011;4663;49.120;9.730;2022-10-01T10:21:01;18.27;;;17.27;;
9254;SDS011;4663;49.120;9.730;2022-10-01T10:23:31;18.52;;;17.63;;
9254;SDS011;4663;49.120;9.730;2022-10-01T10:25:59;24.05;;;22.10;;
9254;SDS011;4663;49.120;9.730;2022-10-01T10:28:42;18.30;;;17.38;;
9254;SDS011;4663;49.120;9.730;2022-10-01T10:31:16;16.55;;;15.75;;
9254;SDS011;4663;49.120;9.730;2022-10-01T10:33:49;17.10;;;16.08;;
9254;SDS011;4663;49.120;9.730;2022-10-01T10:36:18;17.00;;;16.10;;
9254;SDS011;4663;49.120;9.730;2022-10-01T10:38:47;16.10;;;15.27;;
9254;SDS011;4663;49.120;9.730;2022-10-01T10:41:14;16.90;;;16.10;;
9254;SDS011;4663;49.120;9.730;2022-10-01T10:43:43;17.25;;;16.45;;
9254;SDS011;4663;49.120;9.730;2022-10-01T10:46:18;17.85;;;16.85;;
9254;SDS011;4663;49.120;9.730;2022-10-01T10:48:46;17.73;;;16.83;;
9254;SDS011;4663;49.120;9.730;2022-10-01T10:51:17;17.58;;;16.67;;
9254;SDS011;4663;49.120;9.730;2022-10-01T10:53:43;16.27;;;15.48;;
9254;SDS011;4663;49.120;9.730;2022-10-01T10:56:16;16.67;;;15.88;;
9254;SDS011;4663;49.120;9.730;2022-10-01T10:58:46;18.08;;;17.08;;
9254;SDS011;4663;49.120;9.730;2022-10-01T11:01:13;17.75;;;16.95;;
9254;SDS011;4663;49.120;9.730;2022-10-01T11:03:45;17.27;;;16.27;;
9254;SDS011;4663;49.120;9.730;2022-10-01T11:06:12;17.17;;;16.27;;
9254;SDS011;4663;49.120;9.730;2022-10-01T11:08:39;18.67;;;17.67;;
9254;SDS011;4663;49.120;9.730;2022-10-01T11:14:10;17.65;;;16.77;;
9254;SDS011;4663;49.120;9.730;2022-10-01T11:19:43;20.67;;;19.60;;
9254;SDS011;4663;49.120;9.730;2022-10-01T11:28:13;31.65;;;30.17;;
9254;SDS011;4663;49.120;9.730;2022-10-01T11:39:30;21.92;;;20.85;;
9254;SDS011;4663;49.120;9.730;2022-10-01T11:42:04;19.63;;;18.73;;
9254;SDS011;4663;49.120;9.730;2022-10-01T11:44:34;21.55;;;20.50;;
9254;SDS011;4663;49.120;9.730;2022-10-01T11:47:22;23.77;;;22.60;;
9254;SDS011;4663;49.120;9.730;2022-10-01T11:49:55;23.63;;;22.52;;
9254;SDS011;4663;49.120;9.730;2022-10-01T11:58:12;27.60;;;26.15;;
9254;SDS011;4663;49.120;9.730;2022-10-01T12:15:18;30.00;;;28.58;;
9254;SDS011;4663;49.120;9.730;2022-10-01T12:17:53;26.77;;;25.55;;
9254;SDS011;4663;49.120;9.730;2022-10-01T12:22:53;27.77;;;26.45;;
9254;SDS011;4663;49.120;9.730;2022-10-01T12:25:22;28.50;;;27.15;;
9254;SDS011;4663;49.120;9.730;2022-10-01T12:27:56;27.10;;;25.80;;
9254;SDS011;4663;49.120;9.730;2022-10-01T12:30:30;30.02;;;28.55;;
9254;SDS011;4663;49.120;9.730;2022-10-01T12:33:11;30.08;;;28.70;;
9254;SDS011;4663;49.120;9.730;2022-10-01T12:36:09;29.10;;;27.75;;
9254;SDS011;4663;49.120;9.730;2022-10-01T12:55:17;32.30;;;30.65;;
9254;SDS011;4663;49.120;9.730;2022-10-01T12:58:05;30.88;;;29.17;;
9254;SDS011;4663;49.120;9.730;2022-10-01T13:00:52;29.27;;;27.77;;
9254;SDS011;4663;49.120;9.730;2022-10-01T13:14:37;30.90;;;29.40;;
9254;SDS011;4663;49.120;9.730;2022-10-01T13:17:21;30.45;;;28.95;;
9254;SDS011;4663;49.120;9.730;2022-10-01T13:20:12;26.77;;;25.50;;
9254;SDS011;4663;49.120;9.730;2022-10-01T13:33:27;26.00;;;24.75;;
9254;SDS011;4663;49.120;9.730;2022-10-01T13:35:59;24.50;;;23.30;;
9254;SDS011;4663;49.120;9.730;2022-10-01T13:38:38;25.13;;;23.92;;
9254;SDS011;4663;49.120;9.730;2022-10-01T13:41:05;25.25;;;24.00;;
9254;SDS011;4663;49.120;9.730;2022-10-01T13:43:45;24.58;;;23.38;;
9254;SDS011;4663;49.120;9.730;2022-10-01T13:46:26;25.58;;;24.23;;
9254;SDS011;4663;49.120;9.730;2022-10-01T13:48:55;23.95;;;22.55;;
9254;SDS011;4663;49.120;9.730;2022-10-01T13:51:33;23.52;;;22.23;;
9254;SDS011;4663;49.120;9.730;2022-10-01T13:54:00;23.08;;;21.98;;
9254;SDS011;4663;49.120;9.730;2022-10-01T13:56:30;22.60;;;21.48;;
9254;SDS011;4663;49.120;9.730;2022-10-01T13:58:58;23.52;;;22.10;;
9254;SDS011;4663;49.120;9.730;2022-10-01T14:01:42;25.65;;;24.15;;
9254;SDS011;4663;49.120;9.730;2022-10-01T14:04:13;25.65;;;24.38;;
9254;SDS011;4663;49.120;9.730;2022-10-01T14:06:52;23.92;;;22.55;;
9254;SDS011;4663;49.120;9.730;2022-10-01T14:09:22;22.10;;;20.92;;
9254;SDS011;4663;49.120;9.730;2022-10-01T14:17:58;20.88;;;19.83;;
9254;SDS011;4663;49.120;9.730;2022-10-01T14:20:29;18.90;;;18.00;;
9254;SDS011;4663;49.120;9.730;2022-10-01T14:31:10;19.20;;;18.30;;
9254;SDS011;4663;49.120;9.730;2022-10-01T14:36:15;18.42;;;17.52;;
9254;SDS011;4663;49.120;9.730;2022-10-01T14:39:12;17.52;;;16.67;;
9254;SDS011;4663;49.120;9.730;2022-10-01T14:41:40;17.77;;;16.90;;
9254;SDS011;4663;49.120;9.730;2022-10-01T14:46:53;17.15;;;16.35;;
9254;SDS011;4663;49.120;9.730;2022-10-01T14:49:27;17.30;;;16.50;;
9254;SDS011;4663;49.120;9.730;2022-10-01T14:51:55;16.92;;;16.02;;
9254;SDS011;4663;49.120;9.730;2022-10-01T14:54:24;16.10;;;15.25;;
9254;SDS011;4663;49.120;9.730;2022-10-01T14:56:51;17.00;;;16.17;;
9254;SDS011;4663;49.120;9.730;2022-10-01T14:59:23;16.65;;;15.85;;
9254;SDS011;4663;49.120;9.730;2022-10-01T15:01:57;18.70;;;17.73;;
9254;SDS011;4663;49.120;9.730;2022-10-01T15:04:25;16.40;;;15.50;;
9254;SDS011;4663;49.120;9.730;2022-10-01T15:06:50;16.30;;;15.50;;
9254;SDS011;4663;49.120;9.730;2022-10-01T15:09:16;16.63;;;15.82;;
9254;SDS011;4663;49.120;9.730;2022-10-01T15:11:43;15.85;;;14.90;;
9254;SDS011;4663;49.120;9.730;2022-10-01T15:14:14;17.38;;;16.27;;
9254;SDS011;4663;49.120;9.730;2022-10-01T15:16:42;16.20;;;15.45;;
9254;SDS011;4663;49.120;9.730;2022-10-01T15:19:09;16.15;;;15.38;;
9254;SDS011;4663;49.120;9.730;2022-10-01T15:21:55;15.85;;;15.10;;
9254;SDS011;4663;49.120;9.730;2022-10-01T15:27:06;16.75;;;15.85;;
9254;SDS011;4663;49.120;9.730;2022-10-01T15:29:33;16.80;;;15.90;;
9254;SDS011;4663;49.120;9.730;2022-10-01T15:32:00;18.58;;;17.33;;
9254;SDS011;4663;49.120;9.730;2022-10-01T15:34:27;17.20;;;16.30;;
9254;SDS011;4663;49.120;9.730;2022-10-01T15:36:53;16.27;;;15.32;;
9254;SDS011;4663;49.120;9.730;2022-10-01T15:41:56;16.77;;;15.98;;
9254;SDS011;4663;49.120;9.730;2022-10-01T15:55:31;18.40;;;17.50;;
9254;SDS011;4663;49.120;9.730;2022-10-01T16:01:09;21.55;;;20.55;;
9254;SDS011;4663;49.120;9.730;2022-10-01T16:03:38;24.50;;;22.98;;
9254;SDS011;4663;49.120;9.730;2022-10-01T16:06:15;21.40;;;20.30;;
9254;SDS011;4663;49.120;9.730;2022-10-01T16:11:57;22.63;;;21.38;;
9254;SDS011;4663;49.120;9.730;2022-10-01T16:14:27;23.80;;;22.63;;
9254;SDS011;4663;49.120;9.730;2022-10-01T16:19:45;29.13;;;26.77;;
9254;SDS011;4663;49.120;9.730;2022-10-01T16:25:04;24.30;;;22.85;;
9254;SDS011;4663;49.120;9.730;2022-10-01T16:27:49;26.45;;;25.05;;
9254;SDS011;4663;49.120;9.730;2022-10-01T16:30:21;28.55;;;27.00;;
9254;SDS011;4663;49.120;9.730;2022-10-01T16:32:51;27.40;;;25.98;;
9254;SDS011;4663;49.120;9.730;2022-10-01T16:37:51;27.38;;;25.92;;
9254;SDS011;4663;49.120;9.730;2022-10-01T16:40:19;27.92;;;26.33;;
9254;SDS011;4663;49.120;9.730;2022-10-01T16:42:48;28.63;;;27.27;;
9254;SDS011;4663;49.120;9.730;2022-10-01T16:45:15;26.95;;;25.63;;
9254;SDS011;4663;49.120;9.730;2022-10-01T16:47:43;28.00;;;26.63;;
9254;SDS011;4663;49.120;9.730;2022-10-01T16:50:10;30.15;;;28.63;;
9254;SDS011;4663;49.120;9.730;2022-10-01T16:52:38;28.65;;;26.90;;
9254;SDS011;4663;49.120;9.730;2022-10-01T16:55:05;29.90;;;28.20;;
9254;SDS011;4663;49.120;9.730;2022-10-01T16:57:46;29.38;;;27.92;;
9254;SDS011;4663;49.120;9.730;2022-10-01T17:00:13;30.98;;;29.15;;
9254;SDS011;4663;49.120;9.730;2022-10-01T17:02:40;28.00;;;26.48;;
9254;SDS011;4663;49.120;9.730;2022-10-01T17:05:11;31.08;;;29.48;;
9254;SDS011;4663;49.120;9.730;2022-10-01T17:07:40;29.80;;;28.38;;
9254;SDS011;4663;49.120;9.730;2022-10-01T17:10:06;29.23;;;27.75;;
9254;SDS011;4663;49.120;9.730;2022-10-01T17:12:31;30.20;;;28.70;;
9254;SDS011;4663;49.120;9.730;2022-10-01T17:14:57;31.75;;;30.02;;
9254;SDS011;4663;49.120;9.730;2022-10-01T17:17:22;31.48;;;29.92;;
9254;SDS011;4663;49.120;9.730;2022-10-01T17:19:47;33.63;;;31.73;;
9254;SDS011;4663;49.120;9.730;2022-10-01T17:22:13;32.33;;;30.60;;
9254;SDS011;4663;49.120;9.730;2022-10-01T17:24:38;32.78;;;31.10;;
9254;SDS011;4663;49.120;9.730;2022-10-01T17:27:04;32.08;;;30.40;;
9254;SDS011;4663;49.120;9.730;2022-10-01T17:29:29;33.15;;;31.52;;
9254;SDS011;4663;49.120;9.730;2022-10-01T17:31:56;32.47;;;30.73;;
9254;SDS011;4663;49.120;9.730;2022-10-01T17:34:21;32.70;;;31.08;;
9254;SDS011;4663;49.120;9.730;2022-10-01T17:36:47;34.72;;;32.75;;
9254;SDS011;4663;49.120;9.730;2022-10-01T17:39:12;30.88;;;29.20;;
9254;SDS011;4663;49.120;9.730;2022-10-01T17:41:37;33.60;;;31.80;;
9254;SDS011;4663;49.120;9.730;2022-10-01T17:44:03;34.25;;;32.47;;
9254;SDS011;4663;49.120;9.730;2022-10-01T17:46:28;32.38;;;30.73;;
9254;SDS011;4663;49.120;9.730;2022-10-01T17:48:54;33.65;;;31.92;;
9254;SDS011;4663;49.120;9.730;2022-10-01T17:51:20;31.88;;;30.13;;
9254;SDS011;4663;49.120;9.730;2022-10-01T17:53:45;32.25;;;30.45;;
9254;SDS011;4663;49.120;9.730;2022-10-01T17:56:13;33.13;;;31.35;;
9254;SDS011;4663;49.120;9.730;2022-10-01T17:58:40;31.73;;;30.05;;
9254;SDS011;4663;49.120;9.730;2022-10-01T18:01:06;34.30;;;32.58;;
9254;SDS011;4663;49.120;9.730;2022-10-01T18:03:33;30.80;;;29.08;;
9254;SDS011;4663;49.120;9.730;2022-10-01T18:06:02;31.45;;;29.95;;